createdAt,value
2022-08-09T00:00:50.440Z,19.24
2022-08-09T00:01:56.271Z,19.24
2022-08-09T00:03:01.058Z,19.31
2022-08-09T00:04:15.262Z,19.39
2022-08-09T00:06:18.957Z,19.53
2022-08-09T00:06:47.928Z,19.64
2022-08-09T00:07:49.683Z,19.64
2022-08-09T00:08:57.475Z,19.62
2022-08-09T00:09:59.657Z,19.64
2022-08-09T00:11:05.991Z,19.64
2022-08-09T00:12:29.838Z,19.70
2022-08-09T00:13:38.331Z,19.72
2022-08-09T00:14:40.349Z,19.77
2022-08-09T00:15:59.508Z,19.88
2022-08-09T00:17:04.239Z,19.99
2022-08-09T00:18:11.331Z,20.05
2022-08-09T00:19:18.444Z,20.09
2022-08-09T00:20:23.065Z,20.10
2022-08-09T00:21:25.207Z,20.13
2022-08-09T00:22:31.727Z,20.10
2022-08-09T00:23:57.235Z,20.08
2022-08-09T00:25:00.180Z,20.01
2022-08-09T00:26:07.265Z,20.01
2022-08-09T00:27:10.790Z,19.96
2022-08-09T00:28:12.797Z,19.90
2022-08-09T00:30:10.417Z,19.87
2022-08-09T00:30:37.775Z,19.92
2022-08-09T00:32:00.055Z,19.89
2022-08-09T00:33:01.840Z,19.89
2022-08-09T00:34:03.680Z,19.96
2022-08-09T00:35:09.186Z,19.96
2022-08-09T00:36:12.324Z,19.97
2022-08-09T00:37:15.621Z,19.95
2022-08-09T00:38:21.451Z,19.89
2022-08-09T00:40:14.007Z,19.84
2022-08-09T00:40:52.657Z,19.81
2022-08-09T00:44:11.784Z,19.76
2022-08-09T00:44:16.858Z,19.84
2022-08-09T00:44:46.955Z,19.61
2022-08-09T00:45:53.775Z,19.47
2022-08-09T00:47:05.010Z,19.42
2022-08-09T00:48:10.062Z,19.45
2022-08-09T00:49:17.660Z,19.48
2022-08-09T00:50:25.403Z,19.49
2022-08-09T00:51:33.770Z,19.58
2022-08-09T00:52:37.214Z,19.66
2022-08-09T00:53:40.063Z,19.70
2022-08-09T00:54:41.753Z,19.70
2022-08-09T00:56:03.127Z,19.70
2022-08-09T00:57:10.215Z,19.61
2022-08-09T00:58:14.580Z,19.54
2022-08-09T00:59:20.139Z,19.44
2022-08-09T01:00:40.862Z,19.34
2022-08-09T01:01:45.312Z,19.30
2022-08-09T01:02:50.225Z,19.22
2022-08-09T01:04:01.086Z,19.15
2022-08-09T01:05:03.311Z,19.03
2022-08-09T01:06:17.942Z,19.05
2022-08-09T01:07:37.884Z,19.08
2022-08-09T01:09:20.188Z,19.07
2022-08-09T01:10:39.050Z,19.20
2022-08-09T01:12:00.068Z,19.33
2022-08-09T01:13:53.538Z,19.42
2022-08-09T01:14:58.298Z,19.47
2022-08-09T01:16:04.998Z,19.45
2022-08-09T01:17:12.174Z,19.40
2022-08-09T01:18:30.378Z,19.40
2022-08-09T01:19:40.042Z,19.32
2022-08-09T01:21:17.493Z,19.21
2022-08-09T01:23:04.510Z,19.01
2022-08-09T01:24:18.704Z,18.98
2022-08-09T01:25:41.507Z,18.90
2022-08-09T01:27:15.336Z,18.82
2022-08-09T01:28:22.390Z,18.86
2022-08-09T01:29:41.135Z,18.85
2022-08-09T01:30:59.046Z,18.80
2022-08-09T01:32:32.698Z,18.74
2022-08-09T01:33:29.808Z,18.67
2022-08-09T01:34:35.341Z,18.59
2022-08-09T01:35:51.835Z,18.52
2022-08-09T01:36:57.794Z,18.42
2022-08-09T01:38:08.161Z,18.29
2022-08-09T01:39:14.064Z,18.38
2022-08-09T01:40:23.093Z,18.42
2022-08-09T01:41:32.920Z,18.50
2022-08-09T01:42:36.866Z,18.49
2022-08-09T01:43:51.889Z,18.43
2022-08-09T01:44:55.837Z,18.33
2022-08-09T01:45:58.120Z,18.26
2022-08-09T01:47:02.738Z,18.22
2022-08-09T01:48:06.237Z,18.25
2022-08-09T01:49:21.129Z,18.27
2022-08-09T01:50:36.639Z,18.21
2022-08-09T01:51:53.922Z,18.27
2022-08-09T01:52:57.992Z,18.35
2022-08-09T01:54:07.154Z,18.37
2022-08-09T01:55:10.866Z,18.28
2022-08-09T01:56:13.531Z,18.22
2022-08-09T01:57:23.798Z,18.10
2022-08-09T01:58:29.868Z,18.01
2022-08-09T01:59:32.738Z,18.03
2022-08-09T02:00:46.372Z,18.05
2022-08-09T02:01:59.367Z,18.06
2022-08-09T02:03:04.894Z,18.06
2022-08-09T02:04:09.779Z,18.06
2022-08-09T02:05:15.730Z,18.14
2022-08-09T02:06:39.810Z,18.19
2022-08-09T02:08:38.672Z,18.27
2022-08-09T02:09:16.491Z,18.38
2022-08-09T02:10:29.950Z,18.48
2022-08-09T02:11:42.622Z,18.53
2022-08-09T02:12:47.095Z,18.54
2022-08-09T02:14:06.658Z,18.45
2022-08-09T02:15:11.766Z,18.30
2022-08-09T02:16:33.844Z,18.20
2022-08-09T02:18:09.763Z,18.08
2022-08-09T02:19:10.148Z,17.95
2022-08-09T02:20:13.060Z,17.89
2022-08-09T02:21:34.307Z,17.86
2022-08-09T02:22:46.346Z,17.85
2022-08-09T02:23:54.523Z,17.87
2022-08-09T02:25:00.423Z,17.86
2022-08-09T02:26:04.935Z,17.83
2022-08-09T02:27:09.710Z,17.80
2022-08-09T02:28:20.148Z,17.77
2022-08-09T02:29:29.225Z,17.77
2022-08-09T02:31:05.898Z,17.72
2022-08-09T02:32:11.023Z,17.70
2022-08-09T02:33:17.330Z,17.67
2022-08-09T02:34:40.644Z,17.54
2022-08-09T02:36:03.897Z,17.45
2022-08-09T02:37:12.324Z,17.37
2022-08-09T02:38:22.064Z,17.38
2022-08-09T02:39:41.867Z,17.35
2022-08-09T02:40:46.651Z,17.29
2022-08-09T02:41:56.559Z,17.18
2022-08-09T02:43:01.638Z,17.19
2022-08-09T02:44:13.798Z,17.12
2022-08-09T02:45:34.458Z,17.09
2022-08-09T02:46:38.460Z,17.11
2022-08-09T02:47:57.170Z,17.15
2022-08-09T02:49:04.617Z,17.19
2022-08-09T02:50:24.355Z,17.20
2022-08-09T02:51:33.043Z,17.21
2022-08-09T02:52:48.590Z,17.29
2022-08-09T02:54:00.877Z,17.31
2022-08-09T02:55:15.203Z,17.36
2022-08-09T02:56:23.897Z,17.42
2022-08-09T02:57:30.984Z,17.40
2022-08-09T02:58:44.376Z,17.46
2022-08-09T03:00:21.273Z,17.48
2022-08-09T03:01:15.308Z,17.48
2022-08-09T03:02:24.522Z,17.54
2022-08-09T03:04:12.470Z,17.50
2022-08-09T03:04:52.253Z,17.45
2022-08-09T03:05:57.142Z,17.40
2022-08-09T03:07:12.438Z,17.43
2022-08-09T03:08:17.128Z,17.44
2022-08-09T03:09:20.476Z,17.46
2022-08-09T03:10:24.308Z,17.44
2022-08-09T03:12:04.393Z,17.42
2022-08-09T03:12:52.023Z,17.38
2022-08-09T03:14:01.186Z,17.31
2022-08-09T03:15:05.891Z,17.35
2022-08-09T03:16:08.461Z,17.33
2022-08-09T03:17:20.503Z,17.38
2022-08-09T03:18:30.657Z,17.34
2022-08-09T03:19:52.737Z,17.31
2022-08-09T03:20:57.587Z,17.26
2022-08-09T03:22:03.139Z,17.26
2022-08-09T03:23:14.977Z,17.31
2022-08-09T03:24:31.606Z,17.35
2022-08-09T03:25:59.079Z,17.34
2022-08-09T03:27:09.481Z,17.33
2022-08-09T03:28:13.769Z,17.31
2022-08-09T03:29:22.788Z,17.27
2022-08-09T03:30:29.800Z,17.24
2022-08-09T03:31:42.532Z,17.23
2022-08-09T03:32:59.947Z,17.23
2022-08-09T03:34:03.193Z,17.19
2022-08-09T03:35:24.277Z,17.17
2022-08-09T03:36:28.074Z,17.10
2022-08-09T03:37:55.548Z,17.05
2022-08-09T03:38:52.021Z,16.96
2022-08-09T03:39:56.606Z,16.90
2022-08-09T03:40:58.549Z,16.95
2022-08-09T03:42:06.893Z,16.93
2022-08-09T03:43:08.989Z,16.89
2022-08-09T03:44:13.419Z,16.88
2022-08-09T03:45:17.559Z,16.86
2022-08-09T03:46:39.509Z,16.85
2022-08-09T03:47:44.109Z,16.88
2022-08-09T03:48:57.013Z,16.84
2022-08-09T03:50:00.837Z,16.84
2022-08-09T03:51:07.275Z,16.87
2022-08-09T03:52:30.331Z,16.84
2022-08-09T03:53:37.670Z,16.86
2022-08-09T03:54:40.627Z,16.82
2022-08-09T03:55:42.512Z,16.87
2022-08-09T03:56:46.632Z,16.94
2022-08-09T03:58:03.132Z,16.95
2022-08-09T03:59:13.697Z,16.96
2022-08-09T04:00:23.228Z,16.96
2022-08-09T04:01:25.114Z,16.95
2022-08-09T04:02:32.559Z,16.87
2022-08-09T04:04:00.458Z,16.87
2022-08-09T04:05:05.983Z,16.86
2022-08-09T04:06:08.604Z,16.85
2022-08-09T04:07:14.395Z,16.89
2022-08-09T04:08:16.366Z,16.96
2022-08-09T04:09:44.392Z,16.99
2022-08-09T04:10:40.657Z,17.08
2022-08-09T04:11:59.527Z,17.16
2022-08-09T04:13:11.307Z,17.19
2022-08-09T04:14:53.016Z,17.16
2022-08-09T04:15:52.400Z,17.24
2022-08-09T04:16:57.436Z,17.31
2022-08-09T04:17:59.134Z,17.34
2022-08-09T04:19:01.134Z,17.47
2022-08-09T04:20:04.527Z,17.62
2022-08-09T04:21:06.868Z,17.59
2022-08-09T04:22:13.084Z,17.60
2022-08-09T04:23:16.746Z,17.61
2022-08-09T04:24:19.345Z,17.66
2022-08-09T04:25:21.819Z,17.69
2022-08-09T04:26:23.827Z,17.62
2022-08-09T04:27:25.820Z,17.60
2022-08-09T04:28:35.902Z,17.66
2022-08-09T04:29:38.302Z,17.69
2022-08-09T04:30:42.753Z,17.66
2022-08-09T04:31:47.634Z,17.62
2022-08-09T04:32:50.896Z,17.51
2022-08-09T04:33:57.059Z,17.48
2022-08-09T04:35:01.594Z,17.43
2022-08-09T04:36:03.769Z,17.42
2022-08-09T04:37:05.933Z,17.41
2022-08-09T04:38:07.925Z,17.35
2022-08-09T04:39:09.687Z,17.35
2022-08-09T04:40:28.449Z,17.27
2022-08-09T04:41:43.421Z,17.32
2022-08-09T04:42:45.916Z,17.30
2022-08-09T04:44:05.574Z,17.34
2022-08-09T04:45:11.568Z,17.38
2022-08-09T04:46:19.224Z,17.40
2022-08-09T04:47:59.485Z,17.35
2022-08-09T04:48:58.538Z,17.46
2022-08-09T04:50:00.385Z,17.45
2022-08-09T04:51:02.249Z,17.45
2022-08-09T04:52:05.986Z,17.38
2022-08-09T04:53:13.170Z,17.36
2022-08-09T04:54:15.514Z,17.41
2022-08-09T04:55:19.245Z,17.46
2022-08-09T04:56:21.515Z,17.51
2022-08-09T04:57:58.854Z,17.55
2022-08-09T04:58:50.886Z,17.66
2022-08-09T04:59:54.499Z,17.73
2022-08-09T05:00:56.340Z,17.79
2022-08-09T05:02:02.718Z,17.86
2022-08-09T05:03:12.777Z,17.95
2022-08-09T05:04:30.987Z,18.03
2022-08-09T05:05:52.413Z,18.09
2022-08-09T05:06:54.888Z,18.19
2022-08-09T05:07:58.536Z,18.24
2022-08-09T05:09:01.338Z,18.30
2022-08-09T05:10:03.849Z,18.42
2022-08-09T05:11:06.709Z,18.48
2022-08-09T05:12:11.002Z,18.44
2022-08-09T05:13:14.432Z,18.46
2022-08-09T05:14:16.322Z,18.46
2022-08-09T05:15:38.774Z,18.54
2022-08-09T05:16:58.098Z,18.56
2022-08-09T05:18:50.949Z,18.60
2022-08-09T05:19:25.602Z,18.65
2022-08-09T05:20:30.003Z,18.70
2022-08-09T05:21:36.635Z,18.74
2022-08-09T05:23:57.950Z,18.80
2022-08-09T05:24:12.298Z,18.84
2022-08-09T05:25:16.367Z,18.88
2022-08-09T05:26:37.234Z,18.88
2022-08-09T05:27:46.416Z,18.95
2022-08-09T05:28:49.854Z,18.94
2022-08-09T05:29:53.965Z,18.90
2022-08-09T05:30:56.046Z,18.83
2022-08-09T05:32:00.472Z,18.95
2022-08-09T05:33:02.328Z,18.97
2022-08-09T05:34:03.962Z,18.99
2022-08-09T05:35:06.615Z,19.07
2022-08-09T05:36:09.489Z,19.12
2022-08-09T05:37:13.510Z,19.10
2022-08-09T05:38:22.039Z,19.17
2022-08-09T05:39:29.542Z,19.22
2022-08-09T05:40:37.718Z,19.26
2022-08-09T05:41:39.532Z,19.30
2022-08-09T05:42:42.108Z,19.37
2022-08-09T05:43:45.105Z,19.42
2022-08-09T05:44:52.856Z,19.28
2022-08-09T05:45:56.671Z,19.30
2022-08-09T05:46:59.301Z,19.32
2022-08-09T05:48:01.457Z,19.40
2022-08-09T05:49:03.658Z,19.45
2022-08-09T05:50:25.887Z,19.56
2022-08-09T05:51:46.061Z,19.49
2022-08-09T05:52:53.510Z,19.38
2022-08-09T05:53:57.447Z,19.42
2022-08-09T05:55:03.113Z,19.45
2022-08-09T05:56:10.396Z,19.49
2022-08-09T05:57:19.318Z,19.54
2022-08-09T05:58:21.244Z,19.59
2022-08-09T05:59:23.008Z,19.74
2022-08-09T06:00:32.946Z,19.80
2022-08-09T06:01:42.722Z,19.90
2022-08-09T06:02:46.735Z,19.91
2022-08-09T06:03:58.181Z,19.88
2022-08-09T06:05:00.952Z,19.97
2022-08-09T06:06:04.902Z,19.90
2022-08-09T06:07:08.034Z,19.87
2022-08-09T06:08:11.460Z,20.04
2022-08-09T06:09:41.140Z,20.23
2022-08-09T06:10:37.904Z,20.35
2022-08-09T06:11:40.946Z,20.53
2022-08-09T06:13:12.405Z,20.73
2022-08-09T06:14:20.930Z,20.82
2022-08-09T06:15:22.576Z,20.96
2022-08-09T06:16:29.534Z,21.01
2022-08-09T06:17:39.875Z,21.01
2022-08-09T06:18:41.809Z,21.09
2022-08-09T06:19:44.102Z,21.12
2022-08-09T06:20:54.275Z,21.20
2022-08-09T06:21:58.822Z,21.34
2022-08-09T06:23:00.752Z,21.46
2022-08-09T06:24:02.773Z,21.59
2022-08-09T06:25:08.746Z,21.71
2022-08-09T06:26:20.545Z,21.80
2022-08-09T06:27:23.377Z,21.73
2022-08-09T06:28:27.456Z,21.76
2022-08-09T06:29:33.750Z,21.86
2022-08-09T06:30:50.359Z,21.91
2022-08-09T06:32:08.794Z,21.97
2022-08-09T06:33:40.121Z,21.81
2022-08-09T06:34:35.995Z,21.62
2022-08-09T06:35:57.123Z,21.59
2022-08-09T06:37:00.474Z,22.02
2022-08-09T06:38:05.771Z,22.40
2022-08-09T06:39:11.452Z,22.65
2022-08-09T06:40:21.813Z,22.76
2022-08-09T06:41:58.824Z,22.95
2022-08-09T06:42:50.930Z,22.95
2022-08-09T06:43:53.194Z,22.76
2022-08-09T06:44:55.369Z,22.87
2022-08-09T06:46:07.003Z,23.03
2022-08-09T06:47:12.797Z,23.07
2022-08-09T06:48:16.825Z,23.15
2022-08-09T06:50:11.311Z,23.36
2022-08-09T06:50:54.061Z,23.45
2022-08-09T06:51:56.073Z,23.54
2022-08-09T06:52:58.929Z,23.16
2022-08-09T06:54:01.216Z,23.06
2022-08-09T06:55:10.045Z,23.22
2022-08-09T06:56:14.408Z,23.26
2022-08-09T06:57:16.478Z,23.32
2022-08-09T07:00:46.607Z,23.30
2022-08-09T07:00:54.788Z,23.37
2022-08-09T07:01:02.368Z,23.53
2022-08-09T07:02:05.882Z,23.71
2022-08-09T07:03:07.988Z,23.97
2022-08-09T07:04:20.133Z,24.29
2022-08-09T07:05:22.227Z,24.62
2022-08-09T07:06:25.585Z,24.89
2022-08-09T07:08:00.986Z,25.19
2022-08-09T07:08:51.613Z,25.52
2022-08-09T07:10:00.168Z,25.59
2022-08-09T07:11:23.527Z,25.71
2022-08-09T07:12:41.121Z,25.81
2022-08-09T07:13:45.360Z,25.69
2022-08-09T07:16:38.681Z,25.82
2022-08-09T07:16:41.008Z,25.94
2022-08-09T07:17:55.988Z,25.93
2022-08-09T07:18:58.190Z,25.92
2022-08-09T07:20:00.651Z,25.86
2022-08-09T07:21:02.470Z,25.73
2022-08-09T07:22:10.832Z,25.60
2022-08-09T07:23:18.736Z,25.46
2022-08-09T07:24:21.562Z,25.53
2022-08-09T07:25:38.829Z,25.43
2022-08-09T07:26:44.467Z,25.11
2022-08-09T07:27:53.487Z,24.59
2022-08-09T07:29:08.541Z,24.42
2022-08-09T07:30:13.468Z,24.59
2022-08-09T07:31:15.228Z,24.56
2022-08-09T07:32:17.751Z,24.61
2022-08-09T07:33:19.809Z,24.64
2022-08-09T07:34:21.890Z,24.65
2022-08-09T07:35:30.806Z,24.77
2022-08-09T07:36:55.014Z,25.01
2022-08-09T07:37:59.417Z,25.15
2022-08-09T07:39:02.266Z,25.25
2022-08-09T07:40:05.146Z,25.34
2022-08-09T07:41:11.560Z,25.31
2022-08-09T07:42:15.015Z,25.17
2022-08-09T07:43:17.229Z,24.89
2022-08-09T07:44:32.850Z,24.93
2022-08-09T07:45:40.961Z,24.98
2022-08-09T07:46:43.126Z,25.16
2022-08-09T07:48:00.446Z,25.20
2022-08-09T07:49:03.443Z,25.26
2022-08-09T07:50:08.505Z,25.40
2022-08-09T07:52:04.420Z,25.44
2022-08-09T07:52:33.350Z,25.35
2022-08-09T07:54:05.290Z,25.32
2022-08-09T07:55:01.338Z,25.12
2022-08-09T07:56:26.606Z,25.29
2022-08-09T07:57:35.947Z,25.39
2022-08-09T07:58:38.069Z,25.52
2022-08-09T07:59:45.684Z,25.43
2022-08-09T08:00:55.947Z,25.57
2022-08-09T08:02:08.852Z,25.55
2022-08-09T08:03:11.593Z,25.68
2022-08-09T08:04:13.271Z,25.78
2022-08-09T08:05:18.102Z,25.93
2022-08-09T08:06:21.215Z,25.82
2022-08-09T08:08:43.723Z,25.38
2022-08-09T08:09:03.549Z,25.45
2022-08-09T08:10:10.849Z,25.60
2022-08-09T08:12:09.275Z,25.61
2022-08-09T08:12:37.096Z,25.92
2022-08-09T08:13:56.355Z,26.03
2022-08-09T08:14:59.819Z,25.85
2022-08-09T08:16:01.504Z,25.79
2022-08-09T08:17:08.672Z,25.79
2022-08-09T08:18:11.112Z,25.84
2022-08-09T08:19:17.425Z,25.79
2022-08-09T08:20:32.698Z,25.75
2022-08-09T08:21:39.806Z,25.93
2022-08-09T08:22:41.783Z,26.19
2022-08-09T08:23:43.641Z,26.55
2022-08-09T08:24:57.636Z,26.92
2022-08-09T08:26:08.002Z,26.96
2022-08-09T08:27:16.723Z,27.05
2022-08-09T08:28:32.471Z,27.03
2022-08-09T08:29:39.415Z,27.01
2022-08-09T08:30:47.496Z,26.99
2022-08-09T08:32:03.705Z,27.00
2022-08-09T08:33:11.945Z,27.18
2022-08-09T08:34:25.444Z,27.82
2022-08-09T08:35:36.973Z,28.25
2022-08-09T08:36:49.287Z,28.61
2022-08-09T08:38:02.188Z,28.70
2022-08-09T08:39:11.594Z,28.86
2022-08-09T08:40:13.896Z,29.02
2022-08-09T08:41:16.957Z,29.31
2022-08-09T08:42:19.182Z,29.57
2022-08-09T08:43:37.288Z,29.88
2022-08-09T08:44:41.362Z,30.07
2022-08-09T08:45:51.655Z,29.91
2022-08-09T08:47:12.493Z,29.99
2022-08-09T08:48:19.423Z,30.02
2022-08-09T08:49:26.804Z,30.17
2022-08-09T08:50:41.220Z,29.99
2022-08-09T08:52:00.320Z,29.86
2022-08-09T08:53:11.979Z,29.57
2022-08-09T08:54:20.104Z,29.42
2022-08-09T08:55:24.505Z,29.60
2022-08-09T08:56:28.466Z,30.14
2022-08-09T08:57:34.713Z,30.62
2022-08-09T08:58:37.712Z,30.80
2022-08-09T08:59:44.766Z,30.18
2022-08-09T09:00:56.249Z,30.04
2022-08-09T09:01:59.941Z,30.28
2022-08-09T09:03:16.436Z,30.30
2022-08-09T09:04:31.917Z,29.91
2022-08-09T09:06:00.438Z,29.93
2022-08-09T09:07:07.962Z,30.27
2022-08-09T09:08:30.319Z,30.31
2022-08-09T09:09:58.456Z,30.50
2022-08-09T09:10:57.685Z,30.87
2022-08-09T09:11:59.999Z,31.15
2022-08-09T09:13:09.234Z,31.44
2022-08-09T09:14:22.192Z,31.82
2022-08-09T09:15:28.662Z,31.94
2022-08-09T09:16:34.084Z,31.28
2022-08-09T09:17:49.034Z,30.90
2022-08-09T09:19:15.735Z,30.70
2022-08-09T09:20:17.340Z,30.40
2022-08-09T09:21:26.080Z,29.95
2022-08-09T09:22:29.544Z,29.65
2022-08-09T09:23:57.234Z,30.23
2022-08-09T09:26:02.186Z,30.60
2022-08-09T09:26:23.765Z,30.80
2022-08-09T09:28:06.739Z,30.78
2022-08-09T09:29:03.663Z,31.08
2022-08-09T09:30:32.907Z,31.15
2022-08-09T09:32:06.012Z,30.92
2022-08-09T09:33:16.287Z,30.94
2022-08-09T09:34:19.325Z,31.40
2022-08-09T09:35:21.062Z,31.64
2022-08-09T09:36:22.699Z,31.13
2022-08-09T09:37:31.979Z,31.14
2022-08-09T09:38:57.393Z,31.11
2022-08-09T09:40:00.771Z,31.43
2022-08-09T09:41:04.959Z,31.56
2022-08-09T09:42:24.367Z,31.76
2022-08-09T09:43:26.374Z,31.45
2022-08-09T09:44:33.874Z,31.69
2022-08-09T09:46:41.748Z,31.59
2022-08-09T09:47:16.603Z,31.45
2022-08-09T09:48:20.863Z,31.43
2022-08-09T09:49:49.839Z,31.35
2022-08-09T09:50:51.076Z,31.16
2022-08-09T09:52:02.020Z,30.64
2022-08-09T09:53:04.104Z,30.74
2022-08-09T09:54:19.251Z,30.96
2022-08-09T09:55:28.632Z,30.77
2022-08-09T09:56:36.987Z,30.64
2022-08-09T09:58:16.371Z,30.69
2022-08-09T09:59:35.485Z,30.53
2022-08-09T10:00:44.280Z,30.57
2022-08-09T10:02:02.498Z,30.77
2022-08-09T10:03:11.964Z,31.01
2022-08-09T10:04:22.772Z,30.85
2022-08-09T10:06:03.674Z,30.87
2022-08-09T10:06:54.644Z,30.71
2022-08-09T10:08:25.943Z,30.76
2022-08-09T10:09:48.610Z,30.62
2022-08-09T10:10:54.068Z,30.62
2022-08-09T10:12:14.635Z,30.69
2022-08-09T10:13:43.082Z,30.77
2022-08-09T10:14:48.421Z,30.78
2022-08-09T10:16:55.556Z,30.68
2022-08-09T10:17:38.785Z,30.75
2022-08-09T10:18:36.310Z,30.72
2022-08-09T10:19:40.704Z,30.61
2022-08-09T10:20:47.827Z,30.09
2022-08-09T10:21:57.026Z,30.10
2022-08-09T10:23:21.865Z,30.24
2022-08-09T10:24:25.676Z,30.38
2022-08-09T10:26:06.267Z,30.59
2022-08-09T10:27:01.582Z,30.48
2022-08-09T10:28:08.199Z,30.06
2022-08-09T10:29:31.073Z,29.87
2022-08-09T10:32:28.589Z,30.58
2022-08-09T10:34:04.599Z,30.70
2022-08-09T10:34:42.612Z,30.87
2022-08-09T10:35:47.016Z,30.83
2022-08-09T10:36:56.895Z,30.77
2022-08-09T10:38:06.139Z,30.68
2022-08-09T10:39:29.472Z,30.24
2022-08-09T10:40:39.007Z,30.10
2022-08-09T10:41:45.583Z,30.06
2022-08-09T10:42:53.033Z,30.08
2022-08-09T10:43:59.646Z,29.83
2022-08-09T10:45:12.105Z,29.77
2022-08-09T10:46:57.732Z,29.58
2022-08-09T10:48:22.685Z,29.70
2022-08-09T10:49:51.678Z,29.93
2022-08-09T10:51:09.413Z,30.10
2022-08-09T10:52:20.545Z,30.05
2022-08-09T10:53:58.339Z,29.88
2022-08-09T10:55:28.854Z,29.89
2022-08-09T10:57:07.736Z,29.60
2022-08-09T10:58:29.824Z,29.62
2022-08-09T10:59:31.929Z,29.56
2022-08-09T11:03:02.652Z,29.67
2022-08-09T11:03:16.112Z,29.78
2022-08-09T11:04:30.171Z,29.87
2022-08-09T11:05:33.803Z,29.82
2022-08-09T11:06:39.938Z,29.78
2022-08-09T11:07:57.869Z,29.81
2022-08-09T11:09:15.957Z,29.79
2022-08-09T11:10:53.366Z,29.23
2022-08-09T11:12:00.848Z,29.30
2022-08-09T11:13:49.234Z,29.52
2022-08-09T11:14:48.762Z,29.66
2022-08-09T11:16:04.381Z,29.87
2022-08-09T11:17:19.401Z,29.99
2022-08-09T11:18:45.114Z,30.06
2022-08-09T11:20:20.452Z,29.89
2022-08-09T11:21:57.305Z,29.41
2022-08-09T11:23:13.737Z,29.45
2022-08-09T11:24:15.681Z,29.55
2022-08-09T11:25:18.678Z,29.65
2022-08-09T11:26:40.762Z,29.23
2022-08-09T11:28:08.386Z,29.08
2022-08-09T11:30:06.077Z,29.04
2022-08-09T11:31:49.043Z,29.12
2022-08-09T11:33:04.286Z,28.90
2022-08-09T11:34:13.309Z,28.73
2022-08-09T11:35:35.320Z,28.59
2022-08-09T11:36:51.419Z,28.90
2022-08-09T11:37:59.282Z,29.08
2022-08-09T11:39:02.755Z,29.09
2022-08-09T11:40:07.522Z,28.67
2022-08-09T11:41:13.835Z,28.59
2022-08-09T11:42:38.641Z,28.77
2022-08-09T11:43:48.897Z,28.89
2022-08-09T11:44:53.114Z,29.14
2022-08-09T11:46:01.420Z,29.41
2022-08-09T11:47:03.397Z,29.52
2022-08-09T11:48:28.173Z,29.57
2022-08-09T11:50:54.921Z,29.64
2022-08-09T11:52:56.898Z,29.63
2022-08-09T11:53:15.991Z,29.43
2022-08-09T11:54:29.834Z,29.36
2022-08-09T11:55:53.175Z,29.47
2022-08-09T11:57:47.363Z,29.32
2022-08-09T11:59:01.761Z,29.07
2022-08-09T12:00:16.339Z,29.07
2022-08-09T12:02:15.839Z,29.19
2022-08-09T12:02:54.579Z,29.14
2022-08-09T12:04:04.735Z,28.95
2022-08-09T12:05:07.185Z,28.87
2022-08-09T12:06:26.739Z,28.62
2022-08-09T12:07:42.042Z,28.62
2022-08-09T12:08:52.057Z,28.80
2022-08-09T12:09:53.778Z,28.84
2022-08-09T12:10:59.162Z,28.94
2022-08-09T12:12:13.151Z,28.91
2022-08-09T12:14:09.950Z,28.96
2022-08-09T12:15:48.921Z,28.68
2022-08-09T12:16:44.062Z,28.74
2022-08-09T12:17:53.411Z,28.88
2022-08-09T12:18:59.455Z,28.70
2022-08-09T12:20:11.265Z,28.69
2022-08-09T12:21:38.271Z,28.33
2022-08-09T12:22:41.439Z,28.28
2022-08-09T12:24:06.303Z,28.40
2022-08-09T12:25:31.947Z,28.47
2022-08-09T12:26:44.907Z,28.44
2022-08-09T12:29:14.404Z,28.44
2022-08-09T12:29:43.919Z,28.49
2022-08-09T12:30:57.929Z,28.44
2022-08-09T12:32:06.160Z,28.58
2022-08-09T12:33:07.923Z,28.77
2022-08-09T12:34:09.657Z,28.66
2022-08-09T12:35:16.978Z,28.64
2022-08-09T12:36:32.238Z,28.58
2022-08-09T12:37:50.528Z,28.70
2022-08-09T12:38:55.436Z,28.74
2022-08-09T12:40:05.695Z,28.88
2022-08-09T12:41:07.756Z,28.94
2022-08-09T12:42:16.386Z,28.71
2022-08-09T12:43:23.902Z,28.88
2022-08-09T12:44:46.378Z,28.77
2022-08-09T12:45:59.630Z,28.64
2022-08-09T12:47:02.203Z,28.67
2022-08-09T12:48:19.884Z,28.93
2022-08-09T12:49:31.448Z,29.13
2022-08-09T12:50:36.290Z,29.13
2022-08-09T12:52:00.613Z,28.93
2022-08-09T12:53:08.773Z,28.59
2022-08-09T12:54:21.316Z,28.34
2022-08-09T12:56:12.305Z,27.96
2022-08-09T12:56:56.340Z,28.16
2022-08-09T12:58:10.631Z,28.36
2022-08-09T12:59:39.970Z,28.72
2022-08-09T13:00:52.725Z,28.96
2022-08-09T13:02:09.557Z,28.94
2022-08-09T13:03:24.448Z,28.85
2022-08-09T13:04:38.156Z,28.90
2022-08-09T13:05:51.709Z,28.91
2022-08-09T13:07:19.946Z,29.02
2022-08-09T13:08:40.933Z,28.97
2022-08-09T13:09:55.131Z,29.05
2022-08-09T13:11:00.607Z,28.91
2022-08-09T13:12:15.196Z,28.86
2022-08-09T13:14:11.811Z,28.68
2022-08-09T13:15:08.633Z,28.47
2022-08-09T13:16:15.757Z,28.62
2022-08-09T13:17:44.024Z,28.62
2022-08-09T13:18:44.086Z,28.53
2022-08-09T13:20:09.709Z,28.59
2022-08-09T13:22:35.319Z,28.45
2022-08-09T13:23:01.156Z,28.51
2022-08-09T13:24:44.348Z,28.63
2022-08-09T13:25:54.410Z,28.62
2022-08-09T13:26:58.805Z,28.69
2022-08-09T13:28:09.651Z,28.60
2022-08-09T13:29:41.989Z,28.47
2022-08-09T13:30:50.334Z,28.18
2022-08-09T13:32:17.272Z,28.21
2022-08-09T13:33:23.341Z,28.22
2022-08-09T13:34:30.925Z,28.27
2022-08-09T13:36:23.483Z,28.09
2022-08-09T13:36:57.342Z,27.92
2022-08-09T13:38:00.213Z,27.78
2022-08-09T13:41:17.773Z,27.88
2022-08-09T13:41:52.158Z,27.91
2022-08-09T13:41:57.183Z,28.27
2022-08-09T13:43:03.472Z,28.48
2022-08-09T13:44:07.058Z,28.67
2022-08-09T13:45:12.452Z,28.89
2022-08-09T13:47:17.889Z,28.97
2022-08-09T13:47:43.974Z,29.13
2022-08-09T13:48:52.468Z,28.98
2022-08-09T13:49:57.835Z,28.65
2022-08-09T13:51:02.729Z,28.78
2022-08-09T13:52:05.636Z,28.83
2022-08-09T13:53:11.298Z,28.90
2022-08-09T13:54:13.439Z,28.98
2022-08-09T13:55:17.585Z,29.05
2022-08-09T13:56:19.527Z,29.06
2022-08-09T13:57:36.399Z,29.05
2022-08-09T13:58:40.802Z,29.14
2022-08-09T13:59:43.712Z,28.94
2022-08-09T14:00:48.282Z,28.74
2022-08-09T14:02:00.731Z,28.71
2022-08-09T14:04:01.907Z,28.93
2022-08-09T14:04:26.539Z,28.95
2022-08-09T14:05:56.941Z,29.03
2022-08-09T14:06:57.674Z,29.17
2022-08-09T14:08:03.703Z,29.12
2022-08-09T14:09:06.544Z,29.10
2022-08-09T14:10:17.380Z,29.08
2022-08-09T14:11:46.857Z,29.29
2022-08-09T14:12:49.510Z,29.24
2022-08-09T14:14:22.794Z,29.18
2022-08-09T14:16:06.736Z,28.95
2022-08-09T14:16:34.937Z,29.00
2022-08-09T14:18:20.018Z,29.04
2022-08-09T14:19:00.439Z,29.06
2022-08-09T14:20:05.567Z,29.26
2022-08-09T14:21:08.535Z,29.22
2022-08-09T14:22:11.035Z,29.20
2022-08-09T14:23:20.234Z,29.17
2022-08-09T14:24:34.731Z,29.14
2022-08-09T14:25:43.091Z,29.07
2022-08-09T14:26:46.747Z,29.24
2022-08-09T14:27:58.290Z,29.30
2022-08-09T14:29:25.645Z,29.05
2022-08-09T14:30:41.546Z,29.15
2022-08-09T14:31:52.031Z,29.28
2022-08-09T14:32:55.619Z,28.89
2022-08-09T14:33:59.474Z,28.59
2022-08-09T14:35:07.360Z,28.25
2022-08-09T14:36:19.684Z,28.09
2022-08-09T14:37:22.131Z,28.14
2022-08-09T14:38:30.313Z,28.20
2022-08-09T14:39:46.157Z,28.26
2022-08-09T14:41:04.221Z,28.38
2022-08-09T14:42:11.801Z,28.33
2022-08-09T14:43:15.867Z,28.35
2022-08-09T14:44:32.390Z,28.35
2022-08-09T14:46:54.206Z,28.19
2022-08-09T14:47:27.518Z,28.21
2022-08-09T14:48:26.710Z,28.42
2022-08-09T14:49:28.889Z,28.27
2022-08-09T14:50:37.288Z,28.25
2022-08-09T14:51:42.269Z,27.97
2022-08-09T14:52:50.013Z,27.88
2022-08-09T14:53:52.958Z,27.90
2022-08-09T14:54:54.757Z,28.01
2022-08-09T14:55:56.400Z,28.11
2022-08-09T14:56:59.129Z,28.03
2022-08-09T14:58:03.567Z,27.95
2022-08-09T14:59:05.577Z,28.03
2022-08-09T15:00:13.307Z,27.82
2022-08-09T15:01:15.235Z,27.74
2022-08-09T15:02:17.755Z,27.79
2022-08-09T15:03:22.395Z,27.73
2022-08-09T15:04:24.166Z,27.55
2022-08-09T15:05:26.427Z,27.32
2022-08-09T15:06:28.861Z,27.46
2022-08-09T15:07:31.663Z,27.38
2022-08-09T15:08:37.460Z,27.35
2022-08-09T15:10:07.284Z,27.42
2022-08-09T15:11:07.037Z,27.43
2022-08-09T15:12:09.870Z,27.44
2022-08-09T15:13:13.674Z,27.52
2022-08-09T15:14:15.536Z,27.53
2022-08-09T15:15:21.862Z,27.71
2022-08-09T15:16:23.906Z,27.92
2022-08-09T15:17:32.132Z,28.19
2022-08-09T15:18:43.855Z,28.23
2022-08-09T15:19:58.973Z,28.33